createdAt,value
2018-10-19T00:00:09.253Z,79.22
2018-10-19T00:00:35.412Z,79.12
2018-10-19T00:01:01.547Z,79.22
2018-10-19T00:01:27.684Z,79.31
2018-10-19T00:01:53.822Z,79.5
2018-10-19T00:02:19.968Z,79.41
2018-10-19T00:02:46.094Z,79.02
2018-10-19T00:03:12.336Z,79.5
2018-10-19T00:03:38.392Z,79.5
2018-10-19T00:04:04.525Z,79.79
2018-10-19T00:04:30.654Z,79.88
2018-10-19T00:04:56.802Z,79.69
2018-10-19T00:05:22.959Z,79.88
2018-10-19T00:05:49.094Z,79.5
2018-10-19T00:06:15.275Z,79.5
2018-10-19T00:06:41.432Z,79.5
2018-10-19T00:07:07.585Z,79.6
2018-10-19T00:07:33.715Z,79.69
2018-10-19T00:07:59.853Z,79.41
2018-10-19T00:08:25.986Z,79.5
2018-10-19T00:08:52.114Z,79.6
2018-10-19T00:09:18.266Z,79.88
2018-10-19T00:09:44.423Z,79.22
2018-10-19T00:10:10.594Z,79.5
2018-10-19T00:10:36.728Z,79.12
2018-10-19T00:11:02.961Z,79.6
2018-10-19T00:11:29.031Z,79.22
2018-10-19T00:11:55.190Z,79.22
2018-10-19T00:12:21.346Z,79.22
2018-10-19T00:12:47.496Z,79.31
2018-10-19T00:13:13.670Z,79.5
2018-10-19T00:13:39.796Z,79.6
2018-10-19T00:14:05.954Z,79.6
2018-10-19T00:14:32.089Z,79.12
2018-10-19T00:14:58.231Z,78.64
2018-10-19T00:15:24.386Z,78.64
2018-10-19T00:15:50.514Z,78.83
2018-10-19T00:16:16.670Z,78.83
2018-10-19T00:16:42.805Z,79.22
2018-10-19T00:17:09.007Z,79.12
2018-10-19T00:17:35.117Z,79.12
2018-10-19T00:18:01.240Z,78.93
2018-10-19T00:18:27.377Z,79.12
2018-10-19T00:18:53.512Z,79.02
2018-10-19T00:19:19.651Z,78.26
2018-10-19T00:19:45.836Z,78.55
2018-10-19T00:20:11.966Z,78.45
2018-10-19T00:20:38.107Z,78.64
2018-10-19T00:21:04.239Z,78.45
2018-10-19T00:21:30.367Z,78.55
2018-10-19T00:21:56.525Z,78.45
2018-10-19T00:22:22.676Z,78.45
2018-10-19T00:22:48.829Z,78.36
2018-10-19T00:23:15.107Z,78.45
2018-10-19T00:23:41.114Z,78.55
2018-10-19T00:24:07.256Z,78.45
2018-10-19T00:24:33.417Z,78.36
2018-10-19T00:24:59.580Z,78.26
2018-10-19T00:25:25.712Z,78.26
2018-10-19T00:25:51.873Z,78.36
2018-10-19T00:26:18.038Z,78.26
2018-10-19T00:26:44.165Z,78.26
2018-10-19T00:27:10.408Z,78.45
2018-10-19T00:27:36.433Z,78.26
2018-10-19T00:28:02.571Z,78.64
2018-10-19T00:28:28.730Z,78.45
2018-10-19T00:28:54.930Z,78.45
2018-10-19T00:29:21.033Z,78.55
2018-10-19T00:29:47.159Z,78.45
2018-10-19T00:30:13.292Z,78.26
2018-10-19T00:30:39.440Z,78.74
2018-10-19T00:31:05.561Z,78.55
2018-10-19T00:31:31.695Z,78.64
2018-10-19T00:31:57.827Z,78.16
2018-10-19T00:32:23.964Z,77.78
2018-10-19T00:32:50.123Z,77.97
2018-10-19T00:33:16.380Z,77.87
2018-10-19T00:33:42.403Z,78.07
2018-10-19T00:34:08.534Z,77.87
2018-10-19T00:34:34.692Z,77.87
2018-10-19T00:35:00.871Z,77.87
2018-10-19T00:35:26.960Z,78.07
2018-10-19T00:35:53.114Z,77.87
2018-10-19T00:36:19.253Z,78.07
2018-10-19T00:36:45.461Z,77.78
2018-10-19T00:37:11.559Z,77.78
2018-10-19T00:37:37.681Z,78.07
2018-10-19T00:38:03.823Z,78.07
2018-10-19T00:38:29.952Z,77.78
2018-10-19T00:38:56.116Z,77.69
2018-10-19T00:39:22.246Z,77.87
2018-10-19T00:39:48.380Z,77.87
2018-10-19T00:40:14.505Z,77.78
2018-10-19T00:40:40.642Z,77.87
2018-10-19T00:41:06.890Z,78.07
2018-10-19T00:41:32.984Z,78.26
2018-10-19T00:41:59.138Z,77.87
2018-10-19T00:42:25.293Z,78.26
2018-10-19T00:42:51.448Z,77.87
2018-10-19T00:43:17.607Z,77.4
2018-10-19T00:43:43.738Z,77.3
2018-10-19T00:44:09.891Z,77.59
2018-10-19T00:44:36.025Z,77.69
2018-10-19T00:45:02.243Z,77.5
2018-10-19T00:45:28.301Z,77.59
2018-10-19T00:45:54.465Z,77.5
2018-10-19T00:46:20.622Z,77.5
2018-10-19T00:46:46.750Z,77.3
2018-10-19T00:47:12.949Z,78.26
2018-10-19T00:47:39.073Z,78.26
2018-10-19T00:48:05.203Z,78.16
2018-10-19T00:48:31.341Z,77.5
2018-10-19T00:48:57.467Z,78.16
2018-10-19T00:49:23.606Z,77.4
2018-10-19T00:49:49.755Z,77.4
2018-10-19T00:50:15.888Z,78.26
2018-10-19T00:50:42.019Z,77.59
2018-10-19T00:51:08.229Z,77.59
2018-10-19T00:51:34.285Z,77.21
2018-10-19T00:52:00.423Z,77.5
2018-10-19T00:52:26.552Z,77.3
2018-10-19T00:52:52.697Z,77.97
2018-10-19T00:53:18.861Z,78.16
2018-10-19T00:53:44.998Z,78.26
2018-10-19T00:54:11.128Z,78.26
2018-10-19T00:54:37.259Z,77.87
2018-10-19T00:55:03.414Z,77.4
2018-10-19T00:55:29.538Z,78.07
2018-10-19T00:55:55.693Z,77.3
2018-10-19T00:56:21.831Z,78.26
2018-10-19T00:56:47.987Z,77.87
2018-10-19T00:57:14.201Z,77.69
2018-10-19T00:57:40.279Z,78.07
2018-10-19T00:58:06.406Z,78.16
2018-10-19T00:58:32.545Z,78.36
2018-10-19T00:58:58.730Z,78.55
2018-10-19T00:59:24.852Z,78.36
2018-10-19T00:59:50.990Z,78.36
2018-10-19T01:00:17.143Z,78.36
2018-10-19T01:00:43.285Z,78.26
2018-10-19T01:01:09.407Z,78.74
2018-10-19T01:01:35.566Z,78.64
2018-10-19T01:02:01.719Z,78.55
2018-10-19T01:02:27.856Z,77.87
2018-10-19T01:02:54.045Z,77.87
2018-10-19T01:03:20.123Z,77.59
2018-10-19T01:03:46.282Z,78.07
2018-10-19T01:04:12.412Z,78.16
2018-10-19T01:04:38.556Z,77.97
2018-10-19T01:05:04.759Z,78.16
2018-10-19T01:05:30.875Z,78.07
2018-10-19T01:05:57.010Z,77.5
2018-10-19T01:06:23.148Z,77.59
2018-10-19T01:06:49.277Z,77.3
2018-10-19T01:07:15.433Z,77.3
2018-10-19T01:07:41.598Z,77.4
2018-10-19T01:08:07.751Z,78.07
2018-10-19T01:08:33.907Z,78.16
2018-10-19T01:09:00.094Z,77.87
2018-10-19T01:09:26.199Z,78.51
2018-10-19T01:09:52.341Z,78.6
2018-10-19T01:10:18.496Z,78.7
2018-10-19T01:10:44.627Z,78.74
2018-10-19T01:11:10.872Z,78.45
2018-10-19T01:11:36.927Z,78.64
2018-10-19T01:12:03.057Z,78.51
2018-10-19T01:12:29.195Z,78.64
2018-10-19T01:12:55.341Z,78.22
2018-10-19T01:13:21.475Z,78.41
2018-10-19T01:13:47.608Z,78.36
2018-10-19T01:14:13.746Z,78.22
2018-10-19T01:14:39.881Z,78.26
2018-10-19T01:15:06.101Z,78.22
2018-10-19T01:15:32.212Z,78.41
2018-10-19T01:15:58.348Z,78.13
2018-10-19T01:16:24.480Z,78.51
2018-10-19T01:16:50.606Z,78.45
2018-10-19T01:17:16.769Z,78.36
2018-10-19T01:17:42.892Z,78.31
2018-10-19T01:18:09.023Z,78.26
2018-10-19T01:18:35.152Z,77.94
2018-10-19T01:19:01.316Z,78.36
2018-10-19T01:19:27.469Z,78.36
2018-10-19T01:19:53.600Z,77.94
2018-10-19T01:20:19.756Z,78.07
2018-10-19T01:20:45.894Z,77.87
2018-10-19T01:21:12.202Z,77.87
2018-10-19T01:21:38.232Z,77.87
2018-10-19T01:22:04.367Z,78.26
2018-10-19T01:22:30.515Z,78.26
2018-10-19T01:22:56.687Z,77.26
2018-10-19T01:23:22.820Z,77.78
2018-10-19T01:23:48.951Z,77.59
2018-10-19T01:24:15.084Z,77.78
2018-10-19T01:24:41.216Z,77.5
2018-10-19T01:25:07.350Z,77.59
2018-10-19T01:25:33.504Z,77.59
2018-10-19T01:25:59.648Z,77.45
2018-10-19T01:26:25.784Z,77.87
2018-10-19T01:26:51.922Z,77.45
2018-10-19T01:27:18.086Z,77.5
2018-10-19T01:27:44.217Z,77.5
2018-10-19T01:28:10.346Z,77.45
2018-10-19T01:28:36.486Z,77.3
2018-10-19T01:29:02.641Z,77.26
2018-10-19T01:29:28.829Z,77.84
2018-10-19T01:29:54.960Z,77.4
2018-10-19T01:30:21.098Z,77.55
2018-10-19T01:30:47.224Z,77.45
2018-10-19T01:31:13.382Z,78.22
2018-10-19T01:31:39.537Z,77.45
2018-10-19T01:32:05.674Z,77.45
2018-10-19T01:32:31.800Z,77.45
2018-10-19T01:32:57.993Z,77.45
2018-10-19T01:33:24.074Z,78.22
2018-10-19T01:33:50.203Z,78.22
2018-10-19T01:34:16.334Z,77.94
2018-10-19T01:34:42.468Z,77.84
2018-10-19T01:35:08.659Z,78.03
2018-10-19T01:35:34.746Z,78.22
2018-10-19T01:36:00.894Z,77.84
2018-10-19T01:36:27.019Z,77.84
2018-10-19T01:36:53.154Z,77.94
2018-10-19T01:37:19.285Z,77.84
2018-10-19T01:37:45.421Z,78.31
2018-10-19T01:38:11.599Z,78.22
2018-10-19T01:38:37.724Z,77.94
2018-10-19T01:39:03.937Z,77.94
2018-10-19T01:39:30.008Z,78.41
2018-10-19T01:39:56.146Z,78.41
2018-10-19T01:40:22.276Z,78.31
2018-10-19T01:40:48.406Z,78.22
2018-10-19T01:41:14.663Z,78.41
2018-10-19T01:41:40.686Z,78.51
2018-10-19T01:42:06.850Z,78.31
2018-10-19T01:42:32.976Z,78.51
2018-10-19T01:42:59.117Z,78.41
2018-10-19T01:43:25.250Z,78.22
2018-10-19T01:43:51.378Z,78.41
2018-10-19T01:44:17.515Z,78.41
2018-10-19T01:44:43.641Z,78.51
2018-10-19T01:45:09.928Z,78.7
2018-10-19T01:45:35.967Z,78.31
2018-10-19T01:46:02.098Z,78.6
2018-10-19T01:46:28.246Z,78.41
2018-10-19T01:46:54.424Z,78.41
2018-10-19T01:47:20.623Z,78.41
2018-10-19T01:47:46.769Z,78.41
2018-10-19T01:48:12.898Z,78.41
2018-10-19T01:48:39.033Z,78.22
2018-10-19T01:49:05.163Z,78.51
2018-10-19T01:49:31.301Z,78.31
2018-10-19T01:49:57.426Z,78.79
2018-10-19T01:50:23.589Z,78.51
2018-10-19T01:50:49.741Z,78.6
2018-10-19T01:51:15.911Z,78.89
2018-10-19T01:51:42.011Z,78.6
2018-10-19T01:52:08.151Z,78.99
2018-10-19T01:52:34.279Z,79.17
2018-10-19T01:53:00.458Z,78.89
2018-10-19T01:53:26.568Z,79.17
2018-10-19T01:53:52.700Z,79.08
2018-10-19T01:54:18.828Z,78.7
2018-10-19T01:54:44.984Z,78.7
2018-10-19T01:55:11.118Z,78.89
2018-10-19T01:55:37.255Z,78.89
2018-10-19T01:56:03.380Z,78.79
2018-10-19T01:56:29.517Z,78.79
2018-10-19T01:56:55.693Z,78.79
2018-10-19T01:57:21.797Z,79.65
2018-10-19T01:57:47.929Z,79.17
2018-10-19T01:58:14.066Z,79.36
2018-10-19T01:58:40.193Z,79.56
2018-10-19T01:59:06.392Z,78.6
2018-10-19T01:59:32.552Z,79.08
2018-10-19T01:59:58.710Z,79.08
2018-10-19T02:00:24.858Z,78.89
2018-10-19T02:00:50.991Z,78.75
2018-10-19T02:01:17.121Z,78.85
2018-10-19T02:01:43.253Z,78.75
2018-10-19T02:02:09.389Z,79.56
2018-10-19T02:02:35.526Z,79.43
2018-10-19T02:03:01.714Z,79.04
2018-10-19T02:03:27.802Z,79.33
2018-10-19T02:03:53.937Z,79.14
2018-10-19T02:04:20.075Z,79.04
2018-10-19T02:04:46.206Z,78.94
2018-10-19T02:05:12.435Z,79.23
2018-10-19T02:05:38.521Z,79.04
2018-10-19T02:06:04.650Z,79.23
2018-10-19T02:06:30.802Z,79.14
2018-10-19T02:06:56.939Z,79.04
2018-10-19T02:07:23.070Z,79.14
2018-10-19T02:07:49.199Z,78.94
2018-10-19T02:08:15.331Z,79.14
2018-10-19T02:08:41.467Z,79.33
2018-10-19T02:09:07.689Z,79.71
2018-10-19T02:09:33.750Z,79.61
2018-10-19T02:09:59.885Z,79.33
2018-10-19T02:10:26.013Z,79.23
2018-10-19T02:10:52.159Z,79.33
2018-10-19T02:11:18.271Z,79.04
2018-10-19T02:11:44.430Z,79.33
2018-10-19T02:12:10.570Z,79.33
2018-10-19T02:12:36.700Z,79.04
2018-10-19T02:13:02.856Z,79.43
2018-10-19T02:13:28.983Z,79.04
2018-10-19T02:13:55.125Z,79.04
2018-10-19T02:14:21.253Z,79.23
2018-10-19T02:14:47.413Z,79.23
2018-10-19T02:15:13.666Z,79.61
2018-10-19T02:15:39.741Z,78.75
2018-10-19T02:16:05.875Z,78.94
2018-10-19T02:16:32.016Z,78.75
2018-10-19T02:16:58.166Z,78.75
2018-10-19T02:17:24.310Z,78.75
2018-10-19T02:17:50.444Z,79.04
2018-10-19T02:18:16.579Z,78.66
2018-10-19T02:18:42.712Z,78.94
2018-10-19T02:19:08.862Z,78.94
2018-10-19T02:19:34.996Z,79.04
2018-10-19T02:20:01.139Z,79.43
2018-10-19T02:20:27.267Z,79.52
2018-10-19T02:20:53.407Z,79.23
2018-10-19T02:21:19.581Z,78.94
2018-10-19T02:21:45.706Z,79.14
2018-10-19T02:22:11.840Z,79.14
2018-10-19T02:22:37.973Z,78.94
2018-10-19T02:23:04.199Z,79.23
2018-10-19T02:23:30.228Z,79.43
2018-10-19T02:23:56.387Z,79.52
2018-10-19T02:24:22.542Z,79.61
2018-10-19T02:24:48.697Z,79.8
2018-10-19T02:25:14.855Z,79.99
2018-10-19T02:25:40.984Z,79.61
2018-10-19T02:26:07.139Z,79.43
2018-10-19T02:26:33.278Z,79.99
2018-10-19T02:26:59.452Z,79.71
2018-10-19T02:27:25.540Z,79.71
2018-10-19T02:27:51.676Z,79.33
2018-10-19T02:28:17.825Z,79.33
2018-10-19T02:28:43.980Z,79.61
2018-10-19T02:29:10.223Z,79.52
2018-10-19T02:29:36.289Z,79.99
2018-10-19T02:30:02.423Z,80.09
2018-10-19T02:30:28.556Z,79.99
2018-10-19T02:30:54.690Z,79.9
2018-10-19T02:31:20.825Z,80.19
2018-10-19T02:31:46.997Z,80.19
2018-10-19T02:32:13.151Z,80.19
2018-10-19T02:32:39.282Z,79.8
2018-10-19T02:33:05.492Z,79.99
2018-10-19T02:33:31.604Z,80.19
2018-10-19T02:33:57.763Z,80.19
2018-10-19T02:34:23.938Z,79.99
2018-10-19T02:34:50.091Z,79.61
2018-10-19T02:35:16.352Z,79.8
2018-10-19T02:35:42.424Z,79.99
2018-10-19T02:36:08.572Z,79.52
2018-10-19T02:36:34.738Z,79.52
2018-10-19T02:37:00.916Z,79.33
2018-10-19T02:37:27.050Z,79.04
2018-10-19T02:37:53.195Z,79.04
2018-10-19T02:38:19.350Z,79.14
2018-10-19T02:38:45.484Z,79.23
2018-10-19T02:39:11.699Z,79.14
2018-10-19T02:39:37.768Z,79.14
2018-10-19T02:40:03.924Z,79.33
2018-10-19T02:40:30.080Z,79.23
2018-10-19T02:40:56.257Z,79.43
2018-10-19T02:41:22.400Z,79.52
2018-10-19T02:41:48.569Z,79.23
2018-10-19T02:42:14.697Z,78.66
2018-10-19T02:42:40.848Z,78.75
2018-10-19T02:43:06.974Z,79.61
2018-10-19T02:43:33.133Z,79.33
2018-10-19T02:43:59.284Z,79.23
2018-10-19T02:44:25.414Z,79.33
2018-10-19T02:44:51.545Z,79.33
2018-10-19T02:45:17.766Z,79.23
2018-10-19T02:45:43.823Z,79.04
2018-10-19T02:46:09.952Z,79.04
2018-10-19T02:46:36.106Z,79.04
2018-10-19T02:47:02.406Z,79.23
2018-10-19T02:47:28.469Z,79.14
2018-10-19T02:47:54.611Z,79.23
2018-10-19T02:48:20.769Z,79.33
2018-10-19T02:48:46.893Z,79.04
2018-10-19T02:49:13.031Z,79.23
2018-10-19T02:49:39.157Z,79.33
2018-10-19T02:50:05.291Z,79.14
2018-10-19T02:50:31.443Z,79.14
2018-10-19T02:50:57.600Z,79.04
2018-10-19T02:51:23.711Z,79.14
2018-10-19T02:51:49.850Z,79.04
2018-10-19T02:52:16.007Z,79.23
2018-10-19T02:52:42.137Z,79.52
2018-10-19T02:53:08.370Z,79.61
2018-10-19T02:53:34.425Z,79.23
2018-10-19T02:54:00.562Z,79.23
2018-10-19T02:54:26.714Z,79.04
2018-10-19T02:54:52.900Z,78.94
2018-10-19T02:55:19.082Z,78.94
2018-10-19T02:55:45.232Z,79.23
2018-10-19T02:56:11.368Z,79.23
2018-10-19T02:56:37.501Z,79.33
2018-10-19T02:57:03.715Z,79.52
2018-10-19T02:57:29.831Z,79.23
2018-10-19T02:57:55.981Z,79.14
2018-10-19T02:58:22.120Z,79.04
2018-10-19T02:58:48.267Z,79.14
2018-10-19T02:59:14.506Z,79.57
2018-10-19T02:59:40.530Z,79.96
2018-10-19T03:00:06.664Z,79.43
2018-10-19T03:00:32.821Z,79.48
2018-10-19T03:00:58.957Z,79.8
2018-10-19T03:01:25.132Z,79.61
2018-10-19T03:01:51.265Z,79.67
2018-10-19T03:02:17.402Z,79.9
2018-10-19T03:02:43.531Z,79.57
2018-10-19T03:03:09.774Z,79.33
2018-10-19T03:03:35.857Z,79.04
2018-10-19T03:04:02.015Z,79
2018-10-19T03:04:28.152Z,79.28
2018-10-19T03:04:54.282Z,78.94
2018-10-19T03:05:20.411Z,79
2018-10-19T03:05:46.568Z,79.23
2018-10-19T03:06:12.721Z,79.52
2018-10-19T03:06:38.876Z,78.91
2018-10-19T03:07:05.062Z,78.94
2018-10-19T03:07:31.194Z,78.94
2018-10-19T03:07:57.327Z,79
2018-10-19T03:08:23.500Z,79
2018-10-19T03:08:49.631Z,79.1
2018-10-19T03:09:15.875Z,79.28
2018-10-19T03:09:41.964Z,79.19
2018-10-19T03:10:08.120Z,79.1
2018-10-19T03:10:34.243Z,79.1
2018-10-19T03:11:00.409Z,78.91
2018-10-19T03:11:26.540Z,79.19
2018-10-19T03:11:52.662Z,79.19
2018-10-19T03:12:18.819Z,79.19
2018-10-19T03:12:44.949Z,79.1
2018-10-19T03:13:11.089Z,79.57
2018-10-19T03:13:37.212Z,79.57
2018-10-19T03:14:03.366Z,79.57
2018-10-19T03:14:29.496Z,79.57
2018-10-19T03:14:55.679Z,79.67
2018-10-19T03:15:21.788Z,79.38
2018-10-19T03:15:47.941Z,79.19
2018-10-19T03:16:14.078Z,79
2018-10-19T03:16:40.236Z,79.28
2018-10-19T03:17:06.460Z,79.28
2018-10-19T03:17:32.545Z,79.1
2018-10-19T03:17:58.673Z,79.38
2018-10-19T03:18:24.854Z,79.1
2018-10-19T03:18:51.008Z,79
2018-10-19T03:19:17.146Z,78.81
2018-10-19T03:19:43.299Z,78.91
2018-10-19T03:20:09.431Z,79.48
2018-10-19T03:20:35.592Z,78.91
2018-10-19T03:21:01.806Z,79.19
2018-10-19T03:21:27.872Z,78.81
2018-10-19T03:21:54.019Z,79.38
2018-10-19T03:22:20.145Z,79.38
2018-10-19T03:22:46.288Z,79.38
2018-10-19T03:23:12.503Z,79.1
2018-10-19T03:23:38.557Z,79.48
2018-10-19T03:24:04.713Z,79.57
2018-10-19T03:24:30.842Z,79.96
2018-10-19T03:24:57.012Z,79.57
2018-10-19T03:25:23.186Z,79.57
2018-10-19T03:25:49.304Z,79.86
2018-10-19T03:26:15.451Z,79.77
2018-10-19T03:26:41.612Z,79.57
2018-10-19T03:27:07.851Z,79.57
2018-10-19T03:27:33.910Z,79.77
2018-10-19T03:28:00.038Z,79.57
2018-10-19T03:28:26.188Z,79.67
2018-10-19T03:28:52.365Z,79.96
2018-10-19T03:29:18.574Z,79.38
2018-10-19T03:29:44.653Z,79.67
2018-10-19T03:30:10.784Z,79.67
2018-10-19T03:30:36.933Z,79.28
2018-10-19T03:31:03.183Z,79.57
2018-10-19T03:31:29.269Z,79.77
2018-10-19T03:31:55.493Z,79.86
2018-10-19T03:32:21.675Z,79.48
2018-10-19T03:32:47.863Z,79.28
2018-10-19T03:33:14.046Z,80.15
2018-10-19T03:33:40.162Z,80.15
2018-10-19T03:34:06.300Z,80.15
2018-10-19T03:34:32.480Z,79.77
2018-10-19T03:34:58.698Z,80.15
2018-10-19T03:35:24.798Z,80.15
2018-10-19T03:35:50.957Z,79.77
2018-10-19T03:36:17.080Z,79.96
2018-10-19T03:36:43.214Z,80.33
2018-10-19T03:37:09.349Z,80.05
2018-10-19T03:37:35.484Z,79.96
2018-10-19T03:38:01.635Z,80.05
2018-10-19T03:38:27.788Z,80.15
2018-10-19T03:38:53.942Z,80.33
2018-10-19T03:39:20.169Z,80.15
2018-10-19T03:39:46.207Z,80.15
2018-10-19T03:40:12.391Z,80.05
2018-10-19T03:40:38.530Z,80.33
2018-10-19T03:41:04.695Z,80.05
2018-10-19T03:41:30.844Z,79.96
2018-10-19T03:41:56.975Z,80.05
2018-10-19T03:42:23.111Z,80.24
2018-10-19T03:42:49.244Z,79.77
2018-10-19T03:43:15.394Z,79.86
2018-10-19T03:43:41.576Z,80.33
2018-10-19T03:44:07.727Z,79.77
2018-10-19T03:44:33.863Z,80.53
2018-10-19T03:45:00.092Z,80.39
2018-10-19T03:45:26.138Z,79.91
2018-10-19T03:45:52.271Z,80.53
2018-10-19T03:46:18.406Z,80.33
2018-10-19T03:46:44.564Z,80.24
2018-10-19T03:47:10.754Z,80.49
2018-10-19T03:47:36.870Z,80.39
2018-10-19T03:48:02.998Z,80.68
2018-10-19T03:48:29.131Z,80.49
2018-10-19T03:48:55.264Z,80.49
2018-10-19T03:49:21.498Z,80.39
2018-10-19T03:49:47.558Z,80.2
2018-10-19T03:50:13.710Z,80.39
2018-10-19T03:50:39.830Z,80.3
2018-10-19T03:51:06.106Z,80.2
2018-10-19T03:51:32.205Z,80.3
2018-10-19T03:51:58.357Z,80.3
2018-10-19T03:52:24.488Z,80.49
2018-10-19T03:52:50.629Z,80.87
2018-10-19T03:53:16.879Z,80.49
2018-10-19T03:53:42.893Z,80.49
2018-10-19T03:54:09.028Z,80.49
2018-10-19T03:54:35.192Z,80.58
2018-10-19T03:55:01.330Z,80.77
2018-10-19T03:55:27.486Z,80.49
2018-10-19T03:55:53.631Z,80.68
2018-10-19T03:56:19.767Z,80.49
2018-10-19T03:56:45.920Z,80.58
2018-10-19T03:57:12.171Z,80.49
2018-10-19T03:57:38.230Z,80.49
2018-10-19T03:58:04.377Z,80.58
2018-10-19T03:58:30.510Z,80.96
2018-10-19T03:58:56.718Z,80.96
2018-10-19T03:59:22.793Z,81.06
2018-10-19T03:59:48.950Z,81.15
2018-10-19T04:00:15.102Z,80.77
2018-10-19T04:00:41.253Z,80.77
2018-10-19T04:01:07.388Z,80.49
2018-10-19T04:01:33.549Z,80.77
2018-10-19T04:01:59.681Z,80.68
2018-10-19T04:02:25.836Z,80.77
2018-10-19T04:02:51.977Z,80.58
2018-10-19T04:03:18.234Z,80.49
2018-10-19T04:03:44.429Z,80.68
2018-10-19T04:04:10.493Z,81.25
2018-10-19T04:04:36.624Z,80.87
2018-10-19T04:05:02.793Z,80.87
2018-10-19T04:05:28.940Z,80.87
2018-10-19T04:05:55.098Z,80.87
2018-10-19T04:06:21.245Z,81.25
2018-10-19T04:06:47.395Z,81.25
2018-10-19T04:07:13.560Z,81.25
2018-10-19T04:07:39.688Z,81.25
2018-10-19T04:08:05.868Z,81.15
2018-10-19T04:08:31.998Z,81.06
2018-10-19T04:08:58.208Z,80.96
2018-10-19T04:09:24.288Z,81.15
2018-10-19T04:09:50.463Z,81.06
2018-10-19T04:10:16.617Z,81.06
2018-10-19T04:10:42.757Z,81.15
2018-10-19T04:11:08.952Z,81.35
2018-10-19T04:11:35.063Z,81.15
2018-10-19T04:12:01.196Z,81.06
2018-10-19T04:12:27.350Z,81.06
2018-10-19T04:12:53.503Z,81.06
2018-10-19T04:13:19.636Z,81.25
2018-10-19T04:13:45.791Z,81.25
2018-10-19T04:14:11.928Z,81.35
2018-10-19T04:14:38.059Z,81.25
2018-10-19T04:15:04.279Z,81.06
2018-10-19T04:15:30.323Z,81.06
2018-10-19T04:15:56.455Z,81.25
2018-10-19T04:16:22.598Z,81.44
2018-10-19T04:16:48.721Z,81.44
2018-10-19T04:17:15.036Z,81.25
2018-10-19T04:17:41.012Z,81.25
2018-10-19T04:18:07.141Z,81.44
2018-10-19T04:18:33.273Z,80.87
2018-10-19T04:18:59.406Z,80.96
2018-10-19T04:19:25.530Z,80.77
2018-10-19T04:19:51.687Z,80.96
2018-10-19T04:20:17.852Z,80.96
2018-10-19T04:20:43.981Z,80.87
2018-10-19T04:21:10.168Z,81.15
2018-10-19T04:21:36.285Z,81.44
2018-10-19T04:22:02.434Z,81.25
2018-10-19T04:22:28.571Z,81.15
2018-10-19T04:22:54.717Z,81.25
2018-10-19T04:23:20.855Z,81.35
2018-10-19T04:23:46.983Z,81.15
2018-10-19T04:24:13.146Z,81.06
2018-10-19T04:24:39.289Z,81.25
2018-10-19T04:25:05.416Z,81.25
2018-10-19T04:25:31.551Z,81.25
2018-10-19T04:25:57.701Z,81.54
2018-10-19T04:26:23.830Z,81.73
2018-10-19T04:26:49.966Z,81.44
2018-10-19T04:27:16.201Z,81.54
2018-10-19T04:27:42.397Z,81.54
2018-10-19T04:28:08.390Z,81.73
2018-10-19T04:28:34.553Z,81.63
2018-10-19T04:29:00.756Z,81.82
2018-10-19T04:29:26.877Z,81.73
2018-10-19T04:29:53.034Z,81.63
2018-10-19T04:30:19.169Z,81.35
2018-10-19T04:30:45.307Z,81.63
2018-10-19T04:31:11.506Z,81.54
2018-10-19T04:31:37.641Z,81.82
2018-10-19T04:32:03.781Z,81.63
2018-10-19T04:32:29.916Z,81.92
2018-10-19T04:32:56.099Z,81.63
2018-10-19T04:33:22.213Z,81.35
2018-10-19T04:33:48.367Z,81.35
2018-10-19T04:34:14.505Z,81.63
2018-10-19T04:34:40.633Z,81.54
2018-10-19T04:35:06.870Z,81.82
2018-10-19T04:35:32.952Z,81.35
2018-10-19T04:35:59.081Z,81.63
2018-10-19T04:36:25.237Z,81.63
2018-10-19T04:36:51.368Z,81.82
2018-10-19T04:37:17.499Z,81.92
2018-10-19T04:37:43.631Z,81.54
2018-10-19T04:38:09.764Z,82.4
2018-10-19T04:38:35.901Z,81.92
2018-10-19T04:39:02.050Z,82.4
2018-10-19T04:39:28.174Z,81.92
2018-10-19T04:39:54.304Z,82.3
2018-10-19T04:40:20.459Z,81.73
2018-10-19T04:40:46.630Z,81.92
2018-10-19T04:41:12.819Z,81.63
2018-10-19T04:41:39.150Z,81.63
2018-10-19T04:42:05.337Z,81.54
2018-10-19T04:42:31.263Z,81.82
2018-10-19T04:42:57.389Z,81.54
2018-10-19T04:43:23.547Z,81.54
2018-10-19T04:43:49.683Z,81.63
2018-10-19T04:44:15.810Z,81.54
2018-10-19T04:44:41.968Z,81.54
2018-10-19T04:45:08.148Z,81.25
2018-10-19T04:45:34.238Z,81.54
2018-10-19T04:46:00.392Z,81.63
2018-10-19T04:46:26.530Z,81.54
2018-10-19T04:46:52.707Z,81.82
2018-10-19T04:47:18.819Z,81.92
2018-10-19T04:47:45.100Z,81.92
2018-10-19T04:48:11.147Z,81.44
2018-10-19T04:48:37.285Z,81.54
2018-10-19T04:49:03.410Z,81.73
2018-10-19T04:49:29.597Z,81.35
2018-10-19T04:49:55.758Z,81.44
2018-10-19T04:50:21.910Z,81.44
2018-10-19T04:50:48.041Z,81.54
2018-10-19T04:51:14.266Z,81.54
2018-10-19T04:51:40.342Z,82.01
2018-10-19T04:52:06.503Z,81.54
2018-10-19T04:52:32.655Z,81.54
2018-10-19T04:52:58.866Z,81.54
2018-10-19T04:53:24.973Z,81.92
2018-10-19T04:53:51.167Z,81.63
2018-10-19T04:54:17.303Z,81.44
2018-10-19T04:54:43.478Z,80.87
2018-10-19T04:55:09.640Z,81.15
2018-10-19T04:55:35.760Z,81.44
2018-10-19T04:56:01.897Z,81.92
2018-10-19T04:56:28.029Z,81.92
2018-10-19T04:56:54.240Z,81.92
2018-10-19T04:57:20.436Z,82.01
2018-10-19T04:57:46.512Z,81.63
2018-10-19T04:58:12.673Z,81.82
2018-10-19T04:58:38.825Z,82.4
2018-10-19T04:59:05.024Z,82.2
2018-10-19T04:59:31.110Z,82.3
2018-10-19T04:59:57.243Z,81.92
2018-10-19T05:00:23.421Z,81.73
2018-10-19T05:00:49.580Z,81.92
2018-10-19T05:01:15.707Z,81.73
2018-10-19T05:01:41.861Z,81.92
2018-10-19T05:02:07.993Z,81.92
2018-10-19T05:02:34.193Z,81.92
2018-10-19T05:03:00.415Z,81.63
2018-10-19T05:03:26.497Z,82.2
2018-10-19T05:03:52.624Z,81.92
2018-10-19T05:04:18.807Z,81.82
2018-10-19T05:04:45.106Z,82.3
2018-10-19T05:05:11.248Z,81.92
2018-10-19T05:05:37.261Z,81.92
2018-10-19T05:06:03.494Z,82.3
2018-10-19T05:06:29.667Z,81.73
2018-10-19T05:06:55.768Z,81.73
2018-10-19T05:07:21.896Z,82.3
2018-10-19T05:07:48.103Z,81.92
2018-10-19T05:08:14.280Z,82.01
2018-10-19T05:08:40.381Z,82.11
2018-10-19T05:09:06.511Z,81.92
2018-10-19T05:09:32.644Z,81.82
2018-10-19T05:09:58.779Z,82.3
2018-10-19T05:10:24.929Z,81.92
2018-10-19T05:10:51.061Z,81.82
2018-10-19T05:11:17.262Z,82.11
2018-10-19T05:11:43.320Z,82.11
2018-10-19T05:12:09.482Z,82.3
2018-10-19T05:12:35.764Z,82.2
2018-10-19T05:13:01.900Z,82.11
2018-10-19T05:13:28.025Z,82.3
2018-10-19T05:13:54.240Z,81.92
2018-10-19T05:14:20.360Z,82.11
2018-10-19T05:14:46.517Z,82.2
2018-10-19T05:15:12.646Z,81.92
2018-10-19T05:15:38.778Z,82.3
2018-10-19T05:16:04.921Z,82.3
2018-10-19T05:16:31.133Z,81.92
2018-10-19T05:16:57.269Z,82.3
2018-10-19T05:17:23.396Z,82.3
2018-10-19T05:17:49.597Z,81.92
2018-10-19T05:18:15.745Z,81.92
2018-10-19T05:18:41.871Z,82.11
2018-10-19T05:19:08.034Z,82.2
2018-10-19T05:19:34.187Z,82.3
2018-10-19T05:20:00.394Z,82.3
2018-10-19T05:20:26.480Z,81.73
2018-10-19T05:20:52.615Z,82.2
2018-10-19T05:21:18.741Z,82.3
2018-10-19T05:21:44.909Z,82.3
2018-10-19T05:22:11.030Z,81.82
2018-10-19T05:22:37.192Z,82.11
2018-10-19T05:23:03.346Z,81.92
2018-10-19T05:23:29.493Z,82.3
2018-10-19T05:23:55.630Z,82.87
2018-10-19T05:24:21.753Z,82.2
2018-10-19T05:24:48.109Z,82.26
2018-10-19T05:25:14.044Z,82.01
2018-10-19T05:25:40.226Z,82.35
2018-10-19T05:26:06.411Z,82.11
2018-10-19T05:26:32.514Z,81.97
2018-10-19T05:26:58.671Z,82.07
2018-10-19T05:27:24.822Z,82.45
2018-10-19T05:27:50.954Z,82.35
2018-10-19T05:28:17.107Z,81.97
2018-10-19T05:28:43.262Z,82.17
2018-10-19T05:29:09.446Z,82.54
2018-10-19T05:29:35.534Z,82.4
2018-10-19T05:30:01.670Z,82.68
2018-10-19T05:30:27.795Z,82.35
2018-10-19T05:30:53.931Z,82.73
2018-10-19T05:31:20.083Z,82.73
2018-10-19T05:31:46.261Z,82.26
2018-10-19T05:32:12.443Z,82.35
2018-10-19T05:32:38.562Z,82.35
2018-10-19T05:33:04.697Z,82.83
2018-10-19T05:33:30.829Z,82.92
2018-10-19T05:33:56.970Z,82.83
2018-10-19T05:34:23.103Z,82.45
2018-10-19T05:34:49.257Z,82.64
2018-10-19T05:35:15.484Z,82.83
2018-10-19T05:35:41.569Z,82.92
2018-10-19T05:36:07.738Z,83.02
2018-10-19T05:36:33.867Z,82.64
2018-10-19T05:36:59.997Z,82.92
2018-10-19T05:37:26.160Z,82.92
2018-10-19T05:37:52.315Z,82.64
2018-10-19T05:38:18.442Z,83.02